Time;durP1;ratioP1;P1;durP2;ratioP2;P2;SDS_P1;SDS_P2;PMS_P1;PMS_P2;Temp;Humidity;BMP_temperature;BMP_pressure;BME280_temperature;BME280_humidity;BME280_pressure;Samples;Min_cycle;Max_cycle;Signal;HPM_P1;HPM_P2
2022/06/28 00:00:32;;;;;;;7.63;1.73;;;15.80;99.90;;;;;;5053215;28;20033;-73
2022/06/28 00:02:57;;;;;;;5.18;1.52;;;16.10;99.90;;;;;;5053146;28;20086;-74
2022/06/28 00:05:23;;;;;;;5.60;1.55;;;16.30;99.90;;;;;;5053110;28;20037;-75
2022/06/28 00:07:49;;;;;;;16.30;1.73;;;16.20;99.90;;;;;;5051111;28;20013;-74
2022/06/28 00:10:16;;;;;;;5.97;1.55;;;16.30;99.90;;;;;;5053294;28;20063;-74
2022/06/28 00:12:42;;;;;;;11.73;2.00;;;16.20;99.90;;;;;;5052942;28;20025;-75
2022/06/28 00:17:55;;;;;;;13.40;1.55;;;15.80;99.90;;;;;;5052567;28;20079;-75
2022/06/28 00:20:21;;;;;;;10.65;1.58;;;15.80;99.90;;;;;;5053059;28;20461;-75
2022/06/28 00:22:47;;;;;;;8.50;1.60;;;15.60;99.90;;;;;;5052530;28;20051;-75
2022/06/28 00:25:12;;;;;;;9.13;1.80;;;15.70;99.90;;;;;;5053069;28;20033;-73
2022/06/28 00:27:39;;;;;;;7.50;1.73;;;15.70;99.90;;;;;;5052643;28;20370;-75
2022/06/28 00:30:06;;;;;;;4.90;1.60;;;15.70;99.90;;;;;;5051542;28;20071;-73
2022/06/28 00:32:32;;;;;;;7.00;1.77;;;16.00;99.90;;;;;;5052689;28;20033;-74
2022/06/28 00:34:59;;;;;;;7.35;1.45;;;16.10;99.90;;;;;;5051531;28;20049;-74
2022/06/28 00:37:26;;;;;;;9.05;1.98;;;16.00;99.90;;;;;;5051145;28;20091;-74
2022/06/28 00:39:52;;;;;;;5.32;1.50;;;16.00;99.90;;;;;;5052879;28;20120;-73
2022/06/28 00:42:18;;;;;;;8.10;1.63;;;15.70;99.90;;;;;;5052489;28;20029;-73
2022/06/28 00:44:44;;;;;;;7.03;1.75;;;15.80;99.90;;;;;;5052550;28;20036;-74
2022/06/28 00:47:09;;;;;;;4.93;1.58;;;15.90;99.90;;;;;;5053396;28;20044;-74
2022/06/28 00:49:40;;;;;;;5.43;1.75;;;15.70;99.90;;;;;;5055657;28;20021;-73
2022/06/28 00:52:08;;;;;;;5.07;1.50;;;15.90;99.90;;;;;;5055318;28;20560;-74
2022/06/28 00:54:34;;;;;;;5.57;1.83;;;15.80;99.90;;;;;;5055421;28;20075;-75
2022/06/28 00:57:01;;;;;;;9.15;2.25;;;15.30;99.90;;;;;;5055444;28;20028;-74
2022/06/28 00:59:27;;;;;;;8.38;2.10;;;15.30;99.90;;;;;;5056352;28;20031;-75
2022/06/28 01:01:53;;;;;;;7.22;1.90;;;15.40;99.90;;;;;;5055696;28;20017;-74
2022/06/28 01:04:18;;;;;;;3.97;1.63;;;15.30;99.90;;;;;;5056399;28;20036;-73
2022/06/28 01:06:44;;;;;;;7.72;2.25;;;15.20;99.90;;;;;;5056274;28;20032;-74
2022/06/28 01:09:11;;;;;;;7.53;1.85;;;15.30;99.90;;;;;;5054845;28;20044;-73
2022/06/28 01:11:37;;;;;;;5.68;1.80;;;15.10;99.90;;;;;;5055390;28;20082;-73
2022/06/28 01:14:07;;;;;;;10.40;2.72;;;15.00;99.90;;;;;;5054947;28;20033;-74
2022/06/28 01:16:57;;;;;;;6.47;1.80;;;14.90;99.90;;;;;;5054994;28;20033;-75
2022/06/28 01:19:34;;;;;;;9.55;2.00;;;14.90;99.90;;;;;;5054810;28;20039;-74
2022/06/28 01:22:09;;;;;;;4.07;1.45;;;14.70;99.90;;;;;;5054871;28;20494;-74
2022/06/28 01:24:35;;;;;;;6.63;2.25;;;14.80;99.90;;;;;;5054482;28;20029;-74
2022/06/28 01:27:12;;;;;;;14.00;2.38;;;14.90;99.90;;;;;;5054969;28;20087;-73
2022/06/28 01:29:39;;;;;;;10.85;1.88;;;14.60;99.90;;;;;;5054675;28;20462;-74
2022/06/28 01:32:26;;;;;;;7.03;1.73;;;14.80;99.90;;;;;;5044968;28;20498;-73
2022/06/28 01:34:52;;;;;;;7.03;1.73;;;14.60;99.90;;;;;;5054279;28;20381;-75
2022/06/28 01:37:23;;;;;;;8.13;1.80;;;14.50;99.90;;;;;;5054717;28;20049;-74
2022/06/28 01:39:49;;;;;;;11.27;1.77;;;14.60;99.90;;;;;;5054772;28;20106;-74
2022/06/28 01:42:14;;;;;;;9.23;1.85;;;14.80;99.90;;;;;;5054656;28;20044;-73
2022/06/28 01:44:42;;;;;;;6.28;1.92;;;14.70;99.90;;;;;;5055614;28;20112;-74
2022/06/28 01:47:23;;;;;;;8.35;1.80;;;14.60;99.90;;;;;;5054257;28;20116;-73
2022/06/28 01:50:12;;;;;;;9.48;2.20;;;14.80;99.90;;;;;;5026693;28;20545;-75
2022/06/28 01:52:43;;;;;;;6.75;1.98;;;14.80;99.90;;;;;;5054344;28;20377;-75
2022/06/28 01:55:32;;;;;;;7.13;1.40;;;14.90;99.90;;;;;;5055662;28;20032;-75
2022/06/28 01:58:01;;;;;;;8.57;1.92;;;15.00;99.90;;;;;;5053944;28;20028;-75
2022/06/28 02:00:29;;;;;;;12.30;2.20;;;15.10;99.90;;;;;;5053111;28;20028;-74
2022/06/28 02:02:58;;;;;;;9.32;2.47;;;14.70;99.90;;;;;;5054338;28;20040;-74
2022/06/28 02:05:51;;;;;;;7.57;1.85;;;14.80;99.90;;;;;;5054056;28;20090;-74
2022/06/28 02:08:19;;;;;;;7.28;1.55;;;14.80;99.90;;;;;;5055391;28;20029;-73
2022/06/28 02:11:11;;;;;;;5.47;2.15;;;14.80;99.90;;;;;;5052084;28;20045;-74
2022/06/28 02:13:45;;;;;;;8.63;2.03;;;14.80;99.90;;;;;;5054234;28;20044;-73
2022/06/28 02:16:11;;;;;;;8.95;2.30;;;14.60;99.90;;;;;;5053894;28;20474;-74
2022/06/28 02:18:37;;;;;;;7.72;1.92;;;14.50;99.90;;;;;;5053813;28;20032;-74
2022/06/28 02:21:05;;;;;;;7.47;1.50;;;14.40;99.90;;;;;;5054857;28;20104;-73
2022/06/28 02:23:32;;;;;;;8.57;1.83;;;14.50;99.90;;;;;;5053694;28;20371;-74
2022/06/28 02:25:58;;;;;;;10.70;1.80;;;14.40;99.90;;;;;;5053589;28;20044;-74
2022/06/28 02:28:23;;;;;;;14.02;2.65;;;14.50;99.90;;;;;;5053909;28;20049;-74
2022/06/28 02:30:51;;;;;;;8.13;1.45;;;14.30;99.90;;;;;;5053686;28;20040;-73
2022/06/28 02:33:17;;;;;;;13.70;1.98;;;14.40;99.90;;;;;;5052956;28;20029;-74
2022/06/28 02:41:12;;;;;;;11.90;2.20;;;14.50;99.90;;;;;;5054779;28;20040;-73
2022/06/28 02:43:38;;;;;;;18.58;2.78;;;14.50;99.90;;;;;;5053412;28;20052;-74
2022/06/28 02:46:04;;;;;;;12.98;1.73;;;14.40;99.90;;;;;;5053190;28;20122;-74
2022/06/28 02:48:30;;;;;;;8.45;1.35;;;14.50;99.90;;;;;;5053011;28;20038;-73
2022/06/28 02:50:56;;;;;;;11.32;1.90;;;14.60;99.90;;;;;;5051673;28;20029;-74
2022/06/28 02:53:22;;;;;;;10.60;1.55;;;14.80;99.90;;;;;;5053318;28;20501;-74
2022/06/28 02:55:48;;;;;;;13.35;2.10;;;14.70;99.90;;;;;;5052871;28;20040;-76
2022/06/28 02:58:13;;;;;;;8.85;1.75;;;14.60;99.90;;;;;;5053019;28;20044;-74
2022/06/28 03:00:39;;;;;;;17.80;1.83;;;14.60;99.90;;;;;;5053029;28;20031;-73
2022/06/28 03:03:05;;;;;;;7.45;1.77;;;14.40;99.90;;;;;;5054052;28;20033;-73
2022/06/28 03:05:31;;;;;;;15.30;1.85;;;14.40;99.90;;;;;;5052725;28;20068;-74
2022/06/28 03:07:57;;;;;;;10.43;1.80;;;14.30;99.90;;;;;;5052787;28;20392;-74
2022/06/28 03:10:25;;;;;;;16.15;2.20;;;14.40;99.90;;;;;;5052338;28;20544;-75
2022/06/28 03:12:51;;;;;;;13.02;2.13;;;14.20;99.90;;;;;;5052674;28;20021;-75
2022/06/28 03:15:17;;;;;;;7.05;2.17;;;14.10;99.90;;;;;;5052680;28;20063;-74
2022/06/28 03:17:43;;;;;;;13.30;2.45;;;13.90;99.90;;;;;;5052175;28;20389;-74
2022/06/28 03:20:10;;;;;;;11.93;1.98;;;14.00;99.90;;;;;;5054394;28;20063;-74
2022/06/28 03:22:39;;;;;;;7.90;1.92;;;14.10;99.90;;;;;;5052269;28;20429;-74
2022/06/28 03:25:06;;;;;;;7.05;1.83;;;14.30;99.90;;;;;;5052254;28;20041;-73
2022/06/28 03:27:32;;;;;;;13.20;2.10;;;14.40;99.90;;;;;;5052973;28;20037;-73
2022/06/28 03:29:58;;;;;;;6.82;1.90;;;14.10;99.90;;;;;;5052791;28;20478;-73
2022/06/28 03:32:27;;;;;;;10.25;2.00;;;14.30;99.90;;;;;;5050935;28;20032;-74
2022/06/28 03:34:54;;;;;;;9.93;1.63;;;14.40;99.90;;;;;;5052140;28;20017;-73
2022/06/28 03:37:22;;;;;;;11.85;2.33;;;14.30;99.90;;;;;;5052166;28;20095;-73
2022/06/28 03:39:51;;;;;;;12.10;1.90;;;14.20;99.90;;;;;;5052274;28;20028;-73
2022/06/28 03:42:18;;;;;;;8.02;2.10;;;14.10;99.90;;;;;;5052052;28;20056;-74
2022/06/28 03:44:46;;;;;;;12.88;2.58;;;13.80;99.90;;;;;;5051882;28;20082;-73
2022/06/28 03:47:12;;;;;;;15.18;2.42;;;13.80;99.90;;;;;;5051551;28;20041;-73
2022/06/28 03:49:53;;;;;;;9.52;2.08;;;13.80;99.90;;;;;;5053618;28;20098;-74
2022/06/28 03:52:38;;;;;;;11.40;2.05;;;13.90;99.90;;;;;;5052025;28;20052;-73
2022/06/28 03:55:24;;;;;;;11.75;2.00;;;14.10;99.90;;;;;;5042408;28;20120;-73
2022/06/28 03:57:50;;;;;;;17.15;2.58;;;14.10;99.90;;;;;;5051522;28;20029;-73
2022/06/28 04:00:17;;;;;;;15.30;2.08;;;14.00;99.90;;;;;;5051567;28;20029;-74
2022/06/28 04:02:48;;;;;;;13.38;2.72;;;14.40;99.90;;;;;;5053240;28;20025;-74
2022/06/28 04:05:34;;;;;;;10.23;2.50;;;14.40;99.90;;;;;;5045338;28;20077;-73
2022/06/28 04:08:02;;;;;;;14.55;2.63;;;14.60;99.90;;;;;;5051439;28;20025;-74
2022/06/28 04:11:13;;;;;;;9.57;2.10;;;14.50;99.90;;;;;;5039997;28;20063;-74
2022/06/28 04:13:38;;;;;;;14.35;2.17;;;14.20;99.90;;;;;;5051317;28;20071;-73
2022/06/28 04:16:05;;;;;;;14.48;2.20;;;14.20;99.90;;;;;;5051559;28;20017;-74
2022/06/28 04:18:31;;;;;;;10.93;2.88;;;14.20;99.90;;;;;;5051634;28;20033;-73
2022/06/28 04:21:16;;;;;;;10.45;2.13;;;14.20;99.90;;;;;;5051430;28;20545;-72
2022/06/28 04:23:43;;;;;;;14.88;2.72;;;14.40;99.90;;;;;;5051059;28;20032;-74
2022/06/28 04:26:09;;;;;;;12.88;2.10;;;14.40;99.90;;;;;;5051694;28;20094;-73
2022/06/28 04:28:39;;;;;;;13.07;2.78;;;14.50;99.90;;;;;;5051019;28;20025;-74
2022/06/28 04:31:11;;;;;;;16.52;3.03;;;14.70;99.90;;;;;;5051638;28;20534;-72
2022/06/28 04:33:37;;;;;;;13.63;2.22;;;14.80;99.90;;;;;;5051246;28;20033;-73
2022/06/28 04:36:04;;;;;;;18.45;2.30;;;14.60;99.90;;;;;;5051667;28;20036;-74
2022/06/28 04:38:32;;;;;;;12.68;2.03;;;14.70;99.90;;;;;;5052744;28;20029;-74
2022/06/28 04:41:10;;;;;;;9.65;2.55;;;14.80;99.90;;;;;;5051441;28;20025;-74
2022/06/28 04:43:56;;;;;;;17.38;2.55;;;15.00;99.90;;;;;;5052014;28;20048;-73
2022/06/28 04:46:30;;;;;;;14.68;2.15;;;14.90;99.90;;;;;;5051997;28;20036;-74
2022/06/28 04:48:59;;;;;;;8.88;1.55;;;14.90;99.90;;;;;;5035116;28;20022;-73
2022/06/28 04:51:37;;;;;;;9.52;2.20;;;14.70;99.90;;;;;;5051502;28;20040;-73
2022/06/28 04:54:04;;;;;;;17.38;2.97;;;14.60;99.90;;;;;;5050968;28;20416;-73
2022/06/28 04:56:38;;;;;;;7.40;2.42;;;14.50;99.90;;;;;;5051497;28;20449;-74
2022/06/28 04:59:04;;;;;;;18.17;2.75;;;14.60;99.90;;;;;;5052131;28;20116;-73
2022/06/28 05:01:30;;;;;;;13.25;2.83;;;14.60;99.90;;;;;;5051468;28;20029;-73
2022/06/28 05:03:56;;;;;;;21.77;4.22;;;14.80;99.90;;;;;;5051448;28;20051;-73
2022/06/28 05:06:41;;;;;;;7.78;2.20;;;14.90;99.90;;;;;;5052520;28;20051;-74
2022/06/28 05:09:09;;;;;;;16.98;2.80;;;14.70;99.90;;;;;;5051127;28;20075;-73
2022/06/28 05:11:35;;;;;;;15.85;2.60;;;14.70;99.90;;;;;;5051298;28;20029;-72
2022/06/28 05:14:23;;;;;;;16.15;2.80;;;15.00;99.90;;;;;;5052109;28;20033;-73
2022/06/28 05:16:49;;;;;;;17.58;2.97;;;15.10;99.90;;;;;;5051105;28;20095;-72
2022/06/28 05:19:16;;;;;;;9.23;2.20;;;15.10;99.90;;;;;;5051183;28;20061;-73
2022/06/28 05:21:42;;;;;;;23.20;2.97;;;15.00;99.90;;;;;;5052443;28;20065;-73
2022/06/28 05:24:08;;;;;;;16.55;2.78;;;15.00;99.90;;;;;;5052183;28;20060;-73
2022/06/28 05:26:53;;;;;;;9.65;2.45;;;15.10;99.90;;;;;;5050774;28;20033;-73
2022/06/28 05:29:20;;;;;;;17.77;2.90;;;15.00;99.90;;;;;;5050802;28;20027;-74
2022/06/28 05:31:46;;;;;;;10.50;2.88;;;15.40;99.90;;;;;;5052470;28;20112;-73
2022/06/28 05:34:13;;;;;;;13.43;2.70;;;15.50;99.90;;;;;;5054492;28;20489;-74
2022/06/28 05:36:39;;;;;;;15.57;3.08;;;15.40;99.90;;;;;;5054698;28;20039;-74
2022/06/28 05:39:06;;;;;;;15.90;2.65;;;15.20;99.90;;;;;;5054479;28;20109;-74
2022/06/28 05:41:32;;;;;;;17.08;3.30;;;15.20;99.90;;;;;;5055676;28;20456;-74
2022/06/28 05:44:00;;;;;;;10.80;2.42;;;15.30;99.90;;;;;;5054340;28;20021;-74
2022/06/28 05:46:26;;;;;;;16.80;3.13;;;15.30;99.90;;;;;;5054331;28;20033;-74
2022/06/28 05:48:52;;;;;;;23.48;3.22;;;15.50;99.90;;;;;;5055693;28;20036;-74
2022/06/28 05:51:18;;;;;;;15.55;2.60;;;15.40;99.90;;;;;;5054302;28;20032;-74
2022/06/28 05:53:44;;;;;;;16.27;2.80;;;15.30;99.90;;;;;;5054415;28;20051;-73
2022/06/28 05:56:10;;;;;;;12.90;2.85;;;15.50;99.90;;;;;;5054115;28;20009;-74
2022/06/28 05:58:36;;;;;;;21.75;3.15;;;15.60;99.90;;;;;;5054098;28;20024;-74
2022/06/28 06:01:03;;;;;;;13.50;2.63;;;15.70;99.90;;;;;;5055324;28;20347;-74
2022/06/28 06:03:32;;;;;;;18.52;2.38;;;15.90;99.90;;;;;;5054031;28;20075;-73
2022/06/28 06:05:58;;;;;;;15.68;2.97;;;16.10;99.90;;;;;;5055272;28;20124;-72
2022/06/28 06:08:24;;;;;;;16.33;2.72;;;16.10;99.90;;;;;;5053931;28;20116;-74
2022/06/28 06:10:51;;;;;;;13.02;2.53;;;16.20;99.90;;;;;;5053784;28;20025;-74
2022/06/28 06:13:16;;;;;;;20.23;2.72;;;16.30;99.90;;;;;;5053770;28;20031;-74
2022/06/28 06:15:43;;;;;;;14.73;2.90;;;16.50;99.90;;;;;;5053837;28;20029;-73
2022/06/28 06:18:08;;;;;;;10.27;2.38;;;16.70;99.90;;;;;;5053987;28;20021;-73
2022/06/28 06:20:35;;;;;;;15.10;2.97;;;16.70;99.90;;;;;;5053771;28;20098;-75
2022/06/28 06:23:01;;;;;;;13.52;3.13;;;16.90;99.90;;;;;;5055191;28;20060;-73
2022/06/28 06:25:47;;;;;;;15.00;2.10;;;16.30;99.90;;;;;;5023664;28;20033;-75
2022/06/28 06:28:13;;;;;;;11.13;2.30;;;16.20;99.90;;;;;;5053680;28;20032;-74
2022/06/28 06:30:39;;;;;;;17.58;2.90;;;16.20;99.90;;;;;;5054725;28;20028;-74
2022/06/28 06:33:25;;;;;;;17.00;2.35;;;16.30;99.90;;;;;;5033670;28;20037;-74
2022/06/28 06:35:53;;;;;;;13.25;2.40;;;16.30;99.90;;;;;;5054669;28;20099;-74
2022/06/28 06:38:19;;;;;;;21.85;2.97;;;16.40;99.90;;;;;;5053615;28;20037;-73
2022/06/28 06:40:47;;;;;;;10.40;2.10;;;16.50;99.90;;;;;;5053199;28;20032;-75
2022/06/28 06:43:13;;;;;;;16.17;2.65;;;16.90;99.90;;;;;;5054822;28;20024;-73
2022/06/28 06:45:41;;;;;;;10.80;2.15;;;16.60;99.90;;;;;;5052339;28;20033;-73
2022/06/28 06:48:07;;;;;;;14.43;2.65;;;16.70;99.90;;;;;;5053117;28;20467;-74
2022/06/28 06:50:34;;;;;;;13.43;2.10;;;17.00;99.90;;;;;;5053378;28;20039;-73
2022/06/28 06:53:02;;;;;;;12.70;2.35;;;17.30;99.90;;;;;;5053256;28;20013;-74
2022/06/28 06:55:29;;;;;;;12.02;2.08;;;17.30;99.90;;;;;;5053029;28;20119;-74
2022/06/28 06:57:55;;;;;;;8.05;1.80;;;17.20;99.90;;;;;;5054267;28;20155;-74
2022/06/28 07:00:21;;;;;;;12.68;2.35;;;16.90;99.90;;;;;;5054263;28;20104;-74
2022/06/28 07:02:47;;;;;;;17.60;2.25;;;16.90;99.90;;;;;;5052950;28;20152;-73
2022/06/28 07:05:13;;;;;;;9.05;1.80;;;16.80;99.90;;;;;;5052908;28;20017;-73
2022/06/28 07:07:39;;;;;;;14.73;2.05;;;16.90;99.90;;;;;;5052984;28;20040;-75
2022/06/28 07:10:06;;;;;;;12.10;1.98;;;16.90;99.90;;;;;;5052224;28;20116;-74
2022/06/28 07:12:32;;;;;;;11.60;2.53;;;17.10;99.90;;;;;;5052789;28;20460;-74
2022/06/28 07:14:58;;;;;;;11.00;2.80;;;17.50;99.90;;;;;;5052697;28;20052;-73
2022/06/28 07:17:27;;;;;;;8.77;2.17;;;17.50;99.90;;;;;;5052673;28;20024;-73
2022/06/28 07:19:53;;;;;;;10.15;1.77;;;17.50;99.90;;;;;;5054109;28;20024;-74
2022/06/28 07:22:21;;;;;;;10.07;1.75;;;17.50;99.90;;;;;;5053731;28;20552;-75
2022/06/28 07:24:51;;;;;;;13.90;2.70;;;17.70;99.90;;;;;;5052423;28;20079;-73
2022/06/28 07:27:17;;;;;;;12.77;2.38;;;17.60;99.90;;;;;;5052734;28;20078;-74
2022/06/28 07:29:43;;;;;;;14.27;1.90;;;17.60;99.90;;;;;;5052410;28;20032;-73
2022/06/28 07:32:09;;;;;;;13.48;2.20;;;17.80;99.90;;;;;;5052096;28;20024;-74
2022/06/28 07:34:36;;;;;;;7.45;1.60;;;18.00;99.90;;;;;;5052527;28;20025;-74
2022/06/28 07:37:01;;;;;;;13.98;1.88;;;17.90;99.90;;;;;;5053557;28;20556;-73
2022/06/28 07:39:27;;;;;;;8.80;1.67;;;18.00;99.90;;;;;;5052232;28;20017;-75
2022/06/28 07:42:25;;;;;;;10.07;1.90;;;18.00;99.90;;;;;;5008861;28;20371;-73
2022/06/28 07:44:59;;;;;;;7.05;1.40;;;18.10;99.90;;;;;;5053758;28;20041;-75
2022/06/28 07:47:25;;;;;;;15.90;2.35;;;18.20;99.90;;;;;;5051968;28;20402;-74
2022/06/28 07:52:37;;;;;;;10.05;1.92;;;18.10;99.90;;;;;;5051665;28;20040;-73
2022/06/28 07:55:09;;;;;;;7.88;1.60;;;18.30;99.90;;;;;;5052234;28;20040;-75
2022/06/28 07:58:01;;;;;;;13.13;2.17;;;18.40;99.90;;;;;;5049673;28;20025;-74
2022/06/28 08:00:28;;;;;;;7.32;1.58;;;18.90;99.90;;;;;;5052256;28;20039;-75
2022/06/28 08:03:05;;;;;;;9.00;1.52;;;19.00;99.90;;;;;;5051647;28;20017;-74
2022/06/28 08:05:31;;;;;;;7.82;1.48;;;18.90;99.80;;;;;;5051977;28;20094;-74
2022/06/28 08:07:57;;;;;;;8.43;1.52;;;18.80;99.90;;;;;;5051402;28;20074;-75
2022/06/28 08:10:25;;;;;;;9.90;1.45;;;18.80;99.90;;;;;;5051862;28;20071;-75
2022/06/28 08:12:52;;;;;;;8.27;1.80;;;18.70;99.90;;;;;;5051575;28;20021;-74
2022/06/28 08:15:18;;;;;;;7.05;1.88;;;19.10;99.90;;;;;;5051718;28;20029;-74
2022/06/28 08:17:44;;;;;;;11.48;1.80;;;18.80;99.40;;;;;;5052872;28;20024;-74
2022/06/28 08:20:12;;;;;;;7.10;1.60;;;19.00;99.10;;;;;;5051539;28;20029;-75
2022/06/28 08:22:39;;;;;;;6.80;1.95;;;19.00;99.90;;;;;;5051327;28;20478;-74
2022/06/28 08:25:05;;;;;;;9.88;1.85;;;18.90;99.30;;;;;;5051551;28;20036;-75
2022/06/28 08:27:31;;;;;;;5.28;1.17;;;19.20;98.80;;;;;;5051457;28;20017;-74
2022/06/28 08:29:57;;;;;;;4.55;1.20;;;19.30;98.50;;;;;;5051717;28;20076;-73
2022/06/28 08:32:23;;;;;;;10.48;1.77;;;19.20;97.30;;;;;;5051109;28;20049;-73
2022/06/28 08:34:49;;;;;;;9.48;1.75;;;19.40;98.30;;;;;;5051456;28;20400;-75
2022/06/28 08:37:15;;;;;;;8.10;2.10;;;19.70;99.60;;;;;;5052371;28;20077;-74
2022/06/28 08:39:42;;;;;;;5.43;1.38;;;20.30;98.20;;;;;;5053027;28;20095;-74
2022/06/28 08:42:10;;;;;;;6.05;1.00;;;20.40;98.70;;;;;;5052841;28;20025;-75
2022/06/28 08:44:36;;;;;;;12.00;1.73;;;20.10;97.80;;;;;;5043845;28;20028;-73
2022/06/28 08:47:04;;;;;;;6.05;1.42;;;19.90;98.70;;;;;;5063392;28;20071;-73
2022/06/28 08:49:51;;;;;;;9.65;1.85;;;20.00;99.40;;;;;;5070765;28;20032;-74
2022/06/28 08:52:19;;;;;;;10.40;1.80;;;19.90;99.10;;;;;;5071390;28;20036;-75
2022/06/28 08:54:46;;;;;;;8.93;1.25;;;19.80;99.40;;;;;;5072594;28;20067;-74
2022/06/28 08:57:12;;;;;;;7.35;1.70;;;19.60;99.80;;;;;;5072747;28;20029;-75
2022/06/28 08:59:38;;;;;;;6.35;1.50;;;20.10;98.60;;;;;;5058407;28;20029;-75
2022/06/28 09:02:07;;;;;;;6.47;1.30;;;20.40;99.10;;;;;;5052546;28;20028;-75
2022/06/28 09:04:33;;;;;;;4.80;1.00;;;20.40;97.70;;;;;;5051091;28;20033;-74
2022/06/28 09:06:59;;;;;;;5.55;1.00;;;20.70;98.00;;;;;;5052301;28;20044;-75
2022/06/28 09:09:25;;;;;;;4.75;1.08;;;20.70;97.60;;;;;;5055244;28;20048;-75
2022/06/28 09:11:52;;;;;;;4.97;1.35;;;20.80;95.90;;;;;;5056508;28;20061;-74
2022/06/28 09:14:27;;;;;;;3.38;1.20;;;20.10;97.60;;;;;;5056297;28;20531;-74
2022/06/28 09:16:55;;;;;;;8.60;1.42;;;20.10;98.00;;;;;;5056426;28;20112;-75
2022/06/28 09:19:33;;;;;;;5.15;1.13;;;20.50;98.60;;;;;;5056086;28;20028;-74
2022/06/28 09:22:00;;;;;;;5.55;1.20;;;21.10;97.30;;;;;;5056177;28;20040;-76
2022/06/28 09:24:26;;;;;;;3.25;0.80;;;21.30;96.40;;;;;;5056078;28;20500;-73
2022/06/28 09:27:00;;;;;;;7.38;1.20;;;21.40;95.90;;;;;;5056222;28;20029;-75
2022/06/28 09:29:26;;;;;;;3.90;1.25;;;21.00;95.60;;;;;;5056006;28;20033;-75
2022/06/28 09:31:52;;;;;;;3.28;1.00;;;21.10;97.20;;;;;;5055963;28;20033;-74
2022/06/28 09:34:18;;;;;;;4.40;1.27;;;20.90;96.70;;;;;;5055665;28;20036;-75
2022/06/28 09:36:55;;;;;;;8.63;1.80;;;21.00;96.40;;;;;;5056371;28;20032;-75
2022/06/28 09:39:26;;;;;;;6.18;0.90;;;20.80;96.80;;;;;;5055750;28;20044;-75
2022/06/28 09:41:53;;;;;;;2.63;1.10;;;20.90;97.00;;;;;;5055774;28;20082;-75
2022/06/28 09:44:25;;;;;;;6.53;1.55;;;20.90;97.10;;;;;;5055870;28;20029;-75
2022/06/28 09:46:52;;;;;;;3.95;1.08;;;21.50;95.90;;;;;;5055887;28;20036;-74
2022/06/28 09:49:18;;;;;;;7.53;1.20;;;21.50;96.00;;;;;;5055163;28;20268;-75
2022/06/28 09:51:45;;;;;;;6.03;1.40;;;21.90;96.10;;;;;;5055798;28;20120;-71
2022/06/28 09:54:11;;;;;;;5.65;1.10;;;21.80;95.80;;;;;;5055435;28;20033;-75
2022/06/28 09:56:42;;;;;;;8.02;1.33;;;21.80;96.60;;;;;;5055769;28;20013;-74
2022/06/28 09:59:09;;;;;;;4.00;1.30;;;21.70;96.00;;;;;;5055434;28;20044;-74
2022/06/28 10:01:36;;;;;;;6.45;1.08;;;21.40;97.10;;;;;;5055584;28;20021;-73
2022/06/28 10:04:02;;;;;;;4.53;0.90;;;21.70;97.40;;;;;;5055027;28;20075;-75
2022/06/28 10:06:29;;;;;;;2.45;0.60;;;22.00;96.60;;;;;;5055329;28;20037;-76
2022/06/28 10:08:54;;;;;;;4.18;1.10;;;22.10;95.20;;;;;;5055433;28;20017;-74
2022/06/28 10:11:20;;;;;;;5.68;1.77;;;22.00;96.20;;;;;;5055072;28;20029;-75
2022/06/28 10:16:54;;;;;;;4.38;0.85;;;22.30;96.10;;;;;;5054403;28;20028;-75
2022/06/28 10:19:21;;;;;;;9.00;1.05;;;22.40;96.00;;;;;;5054243;28;20083;-75
2022/06/28 10:21:53;;;;;;;5.53;1.00;;;22.40;96.10;;;;;;5054447;28;20108;-75
2022/06/28 10:24:19;;;;;;;;;;;21.60;96.30;;;;;;5055512;28;20033;-74
2022/06/28 10:27:06;;;;;;;7.50;1.15;;;21.70;96.70;;;;;;5054806;28;19970;-74
2022/06/28 10:29:32;;;;;;;7.13;1.20;;;21.70;96.40;;;;;;5054677;28;20017;-75
2022/06/28 10:31:57;;;;;;;4.45;1.50;;;21.80;95.90;;;;;;5054140;28;20025;-75
2022/06/28 10:34:47;;;;;;;5.78;1.17;;;22.10;96.40;;;;;;5054597;28;20045;-75
2022/06/28 10:37:13;;;;;;;5.28;1.20;;;22.40;95.80;;;;;;5054774;28;20032;-74
2022/06/28 10:39:39;;;;;;;4.25;1.25;;;22.40;95.30;;;;;;5054690;28;20020;-74
2022/06/28 10:42:07;;;;;;;5.55;1.20;;;22.10;95.20;;;;;;5054671;28;20029;-75
2022/06/28 10:44:33;;;;;;;6.00;1.08;;;22.40;96.10;;;;;;5054318;28;20036;-75
2022/06/28 10:47:04;;;;;;;4.35;1.23;;;22.70;94.70;;;;;;5052853;28;20033;-74
2022/06/28 10:49:57;;;;;;;4.00;1.17;;;22.50;96.30;;;;;;5054243;28;20052;-75
2022/06/28 10:52:32;;;;;;;5.32;1.23;;;22.60;95.30;;;;;;5054515;28;20469;-75
2022/06/28 10:54:58;;;;;;;5.57;1.48;;;22.80;95.00;;;;;;5054443;28;20021;-75
2022/06/28 10:57:33;;;;;;;6.97;1.23;;;22.90;94.90;;;;;;5054319;28;20102;-75
2022/06/28 11:00:05;;;;;;;5.55;1.50;;;23.40;95.10;;;;;;5053968;28;20471;-74
2022/06/28 11:02:59;;;;;;;3.90;1.48;;;23.20;94.60;;;;;;5054002;28;20081;-75
2022/06/28 11:05:46;;;;;;;3.92;1.05;;;22.90;94.30;;;;;;5053897;28;20029;-75
2022/06/28 11:08:32;;;;;;;8.00;1.55;;;22.90;95.50;;;;;;5054035;28;20107;-75
2022/06/28 11:11:03;;;;;;;9.82;1.40;;;23.50;95.20;;;;;;5054045;28;20377;-74
2022/06/28 11:13:29;;;;;;;6.68;1.35;;;23.60;93.80;;;;;;5053895;28;20052;-72
2022/06/28 11:15:55;;;;;;;4.07;1.20;;;23.50;94.40;;;;;;5053547;28;20021;-75
2022/06/28 11:18:23;;;;;;;4.25;1.20;;;23.90;95.00;;;;;;5054367;28;20080;-74
2022/06/28 11:20:51;;;;;;;5.60;1.40;;;24.20;94.00;;;;;;5053830;28;20025;-76
2022/06/28 11:23:28;;;;;;;5.40;1.40;;;24.40;93.80;;;;;;5053806;28;20023;-76
2022/06/28 11:29:12;;;;;;;9.80;1.38;;;24.30;94.30;;;;;;5053645;28;20036;-75
2022/06/28 11:31:42;;;;;;;6.85;1.30;;;25.10;93.10;;;;;;5030654;28;20040;-75
2022/06/28 11:34:08;;;;;;;6.22;1.63;;;24.70;93.40;;;;;;5053466;28;20485;-75
2022/06/28 11:36:35;;;;;;;10.52;2.05;;;24.30;93.60;;;;;;5052285;28;20032;-75
2022/06/28 11:39:21;;;;;;;6.93;1.38;;;24.60;93.00;;;;;;5053716;28;20049;-77
2022/06/28 11:41:57;;;;;;;5.32;1.67;;;23.60;93.60;;;;;;5053688;28;20082;-74
2022/06/28 11:44:23;;;;;;;5.25;1.45;;;24.10;93.30;;;;;;5053284;28;20535;-74
2022/06/28 11:46:51;;;;;;;7.40;1.30;;;23.90;93.70;;;;;;5052166;28;20370;-76
2022/06/28 11:49:31;;;;;;;5.82;1.65;;;24.00;92.90;;;;;;5053504;28;20037;-75
2022/06/28 11:51:57;;;;;;;4.43;1.40;;;24.30;93.60;;;;;;5053253;28;20102;-73
2022/06/28 11:54:24;;;;;;;7.68;1.55;;;24.40;92.80;;;;;;5053389;28;20071;-76
2022/06/28 11:56:50;;;;;;;5.35;1.30;;;24.60;92.90;;;;;;5053503;28;20056;-75
2022/06/28 11:59:16;;;;;;;9.30;1.55;;;24.10;92.50;;;;;;5053189;28;20049;-74
2022/06/28 12:01:43;;;;;;;7.28;1.23;;;24.80;92.10;;;;;;5052875;28;20028;-74
2022/06/28 12:04:12;;;;;;;6.60;1.23;;;24.50;93.10;;;;;;5053280;28;20111;-74
2022/06/28 12:06:44;;;;;;;6.35;1.70;;;24.70;92.90;;;;;;5053090;28;20041;-75
2022/06/28 12:09:11;;;;;;;10.50;2.05;;;24.70;92.90;;;;;;5053115;28;20029;-76
2022/06/28 12:12:05;;;;;;;7.43;1.60;;;25.30;92.10;;;;;;5053283;28;20032;-75
2022/06/28 12:14:32;;;;;;;6.32;1.77;;;25.50;91.10;;;;;;5049554;28;20083;-74
2022/06/28 12:17:00;;;;;;;3.58;1.60;;;25.40;91.20;;;;;;5052989;28;20047;-74
2022/06/28 12:19:31;;;;;;;5.80;1.58;;;25.20;90.60;;;;;;5053041;28;20033;-76
2022/06/28 12:22:00;;;;;;;10.43;1.75;;;25.20;90.60;;;;;;5051541;28;20124;-75
2022/06/28 12:24:53;;;;;;;6.45;1.60;;;25.60;91.80;;;;;;5053027;28;20029;-75
2022/06/28 12:27:26;;;;;;;5.15;1.42;;;25.60;92.00;;;;;;5052959;28;20040;-76
2022/06/28 12:29:54;;;;;;;4.88;1.10;;;26.30;91.60;;;;;;5052864;28;20417;-75
2022/06/28 12:32:20;;;;;;;7.15;1.52;;;26.40;91.60;;;;;;5052498;28;20016;-76
2022/06/28 12:34:46;;;;;;;6.35;1.92;;;26.90;90.80;;;;;;5052823;28;20102;-73
2022/06/28 12:37:12;;;;;;;8.18;1.55;;;26.80;91.70;;;;;;5053030;28;20474;-76
2022/06/28 12:39:39;;;;;;;6.63;1.90;;;26.80;90.30;;;;;;5052831;28;20528;-76
2022/06/28 12:42:05;;;;;;;7.97;1.70;;;27.10;90.40;;;;;;5051130;28;20381;-73
2022/06/28 12:44:32;;;;;;;4.25;1.70;;;26.10;89.40;;;;;;5052006;28;20021;-74
2022/06/28 12:46:58;;;;;;;7.45;1.40;;;26.30;90.40;;;;;;5052723;28;20070;-74
2022/06/28 12:49:24;;;;;;;3.60;1.13;;;26.80;88.80;;;;;;5052641;28;20096;-75
2022/06/28 12:51:51;;;;;;;10.73;1.60;;;26.00;89.80;;;;;;5052844;28;20033;-73
2022/06/28 12:54:18;;;;;;;7.28;1.27;;;26.40;90.00;;;;;;5052603;28;20421;-75
2022/06/28 12:56:44;;;;;;;4.80;1.30;;;26.70;87.90;;;;;;5052453;28;20025;-74
2022/06/28 12:59:10;;;;;;;5.72;1.40;;;27.20;87.40;;;;;;5052440;28;20024;-75
2022/06/28 13:01:36;;;;;;;7.35;1.33;;;27.00;89.80;;;;;;5052506;28;20021;-75
2022/06/28 13:04:02;;;;;;;6.20;1.60;;;27.50;86.90;;;;;;5052805;28;20060;-73
2022/06/28 13:06:30;;;;;;;4.03;1.40;;;27.30;87.60;;;;;;5051556;28;20409;-73
2022/06/28 13:08:56;;;;;;;5.13;1.35;;;26.90;87.10;;;;;;5052440;28;20024;-74
2022/06/28 13:11:22;;;;;;;7.10;1.30;;;26.90;87.30;;;;;;5052318;28;20043;-73